sensor_id;sensor_type;location;lat;lon;timestamp;temperature;humidity
19200;DHT22;9732;52.498;5.408;2023-04-15T00:00:47;11.10;99.90
19200;DHT22;9732;52.498;5.408;2023-04-15T00:03:16;11.00;99.90
19200;DHT22;9732;52.498;5.408;2023-04-15T00:05:43;11.00;99.90
19200;DHT22;9732;52.498;5.408;2023-04-15T00:08:10;10.90;99.90
19200;DHT22;9732;52.498;5.408;2023-04-15T00:10:37;10.90;99.90
19200;DHT22;9732;52.498;5.408;2023-04-15T00:13:04;10.90;99.90
19200;DHT22;9732;52.498;5.408;2023-04-15T00:15:32;10.90;99.90
19200;DHT22;9732;52.498;5.408;2023-04-15T00:18:01;10.90;99.90
19200;DHT22;9732;52.498;5.408;2023-04-15T00:20:29;10.80;99.90
19200;DHT22;9732;52.498;5.408;2023-04-15T00:22:55;10.70;99.90
19200;DHT22;9732;52.498;5.408;2023-04-15T00:25:24;10.60;99.90
19200;DHT22;9732;52.498;5.408;2023-04-15T00:27:50;10.60;99.90
19200;DHT22;9732;52.498;5.408;2023-04-15T00:30:19;10.60;99.90
19200;DHT22;9732;52.498;5.408;2023-04-15T00:32:46;10.60;99.90
19200;DHT22;9732;52.498;5.408;2023-04-15T00:35:15;10.60;99.90
19200;DHT22;9732;52.498;5.408;2023-04-15T00:37:42;10.60;99.90
19200;DHT22;9732;52.498;5.408;2023-04-15T00:40:12;10.60;99.90
19200;DHT22;9732;52.498;5.408;2023-04-15T00:42:39;10.50;99.90
19200;DHT22;9732;52.498;5.408;2023-04-15T00:45:08;10.50;99.90
19200;DHT22;9732;52.498;5.408;2023-04-15T00:47:35;10.60;99.90
19200;DHT22;9732;52.498;5.408;2023-04-15T00:50:05;10.60;99.90
19200;DHT22;9732;52.498;5.408;2023-04-15T00:52:33;10.50;99.90
19200;DHT22;9732;52.498;5.408;2023-04-15T00:55:01;10.60;99.90
19200;DHT22;9732;52.498;5.408;2023-04-15T00:57:29;10.50;99.90
19200;DHT22;9732;52.498;5.408;2023-04-15T00:59:57;10.50;99.90
19200;DHT22;9732;52.498;5.408;2023-04-15T01:02:24;10.40;99.90
19200;DHT22;9732;52.498;5.408;2023-04-15T01:04:52;10.50;99.90
19200;DHT22;9732;52.498;5.408;2023-04-15T01:07:19;10.50;99.90
19200;DHT22;9732;52.498;5.408;2023-04-15T01:09:47;10.50;99.90
19200;DHT22;9732;52.498;5.408;2023-04-15T01:12:16;10.40;99.90
19200;DHT22;9732;52.498;5.408;2023-04-15T01:14:44;10.30;99.90
19200;DHT22;9732;52.498;5.408;2023-04-15T01:17:11;10.30;99.90
19200;DHT22;9732;52.498;5.408;2023-04-15T01:19:39;10.30;99.90
19200;DHT22;9732;52.498;5.408;2023-04-15T01:22:06;10.30;99.90
19200;DHT22;9732;52.498;5.408;2023-04-15T01:24:34;10.20;99.90
19200;DHT22;9732;52.498;5.408;2023-04-15T01:27:03;10.30;99.90
19200;DHT22;9732;52.498;5.408;2023-04-15T01:29:31;10.30;99.90
19200;DHT22;9732;52.498;5.408;2023-04-15T01:31:59;10.20;99.90
19200;DHT22;9732;52.498;5.408;2023-04-15T01:34:26;10.30;99.90
19200;DHT22;9732;52.498;5.408;2023-04-15T01:36:53;10.20;99.90
19200;DHT22;9732;52.498;5.408;2023-04-15T01:39:20;10.30;99.90
19200;DHT22;9732;52.498;5.408;2023-04-15T01:41:48;10.20;99.90
19200;DHT22;9732;52.498;5.408;2023-04-15T01:44:17;10.20;99.90
19200;DHT22;9732;52.498;5.408;2023-04-15T01:46:45;10.20;99.90
19200;DHT22;9732;52.498;5.408;2023-04-15T01:49:13;10.20;99.90
19200;DHT22;9732;52.498;5.408;2023-04-15T01:51:39;10.20;99.90
19200;DHT22;9732;52.498;5.408;2023-04-15T01:54:06;10.10;99.90
19200;DHT22;9732;52.498;5.408;2023-04-15T01:56:33;10.10;99.90
19200;DHT22;9732;52.498;5.408;2023-04-15T01:59:00;10.10;99.90
19200;DHT22;9732;52.498;5.408;2023-04-15T02:01:29;10.10;99.90
19200;DHT22;9732;52.498;5.408;2023-04-15T02:03:56;10.10;99.90
19200;DHT22;9732;52.498;5.408;2023-04-15T02:06:23;10.00;99.90
19200;DHT22;9732;52.498;5.408;2023-04-15T02:08:49;10.10;99.90
19200;DHT22;9732;52.498;5.408;2023-04-15T02:11:17;10.00;99.90
19200;DHT22;9732;52.498;5.408;2023-04-15T02:13:44;10.00;99.90
19200;DHT22;9732;52.498;5.408;2023-04-15T02:16:17;10.00;99.90
19200;DHT22;9732;52.498;5.408;2023-04-15T02:18:46;9.90;99.90
19200;DHT22;9732;52.498;5.408;2023-04-15T02:21:13;9.90;99.90
19200;DHT22;9732;52.498;5.408;2023-04-15T02:23:40;9.90;99.90
19200;DHT22;9732;52.498;5.408;2023-04-15T02:26:09;9.90;99.90
19200;DHT22;9732;52.498;5.408;2023-04-15T02:28:38;9.90;99.90
19200;DHT22;9732;52.498;5.408;2023-04-15T02:31:05;9.90;99.90
19200;DHT22;9732;52.498;5.408;2023-04-15T02:33:34;9.90;99.90
19200;DHT22;9732;52.498;5.408;2023-04-15T02:36:03;9.90;99.90
19200;DHT22;9732;52.498;5.408;2023-04-15T02:38:30;9.90;99.90
19200;DHT22;9732;52.498;5.408;2023-04-15T02:40:57;9.80;99.90
19200;DHT22;9732;52.498;5.408;2023-04-15T02:43:24;9.80;99.90
19200;DHT22;9732;52.498;5.408;2023-04-15T02:45:50;9.80;99.90
19200;DHT22;9732;52.498;5.408;2023-04-15T02:48:17;9.70;99.90
19200;DHT22;9732;52.498;5.408;2023-04-15T02:50:45;9.70;99.90
19200;DHT22;9732;52.498;5.408;2023-04-15T02:53:14;9.70;99.90
19200;DHT22;9732;52.498;5.408;2023-04-15T02:55:42;9.70;99.90
19200;DHT22;9732;52.498;5.408;2023-04-15T02:58:09;9.70;99.90
19200;DHT22;9732;52.498;5.408;2023-04-15T03:00:36;9.80;99.90
19200;DHT22;9732;52.498;5.408;2023-04-15T03:03:04;9.80;99.90
19200;DHT22;9732;52.498;5.408;2023-04-15T03:05:32;9.80;99.90
19200;DHT22;9732;52.498;5.408;2023-04-15T03:07:59;9.70;99.90
19200;DHT22;9732;52.498;5.408;2023-04-15T03:10:29;9.70;99.90
19200;DHT22;9732;52.498;5.408;2023-04-15T03:12:56;9.70;99.90
19200;DHT22;9732;52.498;5.408;2023-04-15T03:15:23;9.70;99.90
19200;DHT22;9732;52.498;5.408;2023-04-15T03:17:50;9.60;99.90
19200;DHT22;9732;52.498;5.408;2023-04-15T03:20:17;9.60;99.90
19200;DHT22;9732;52.498;5.408;2023-04-15T03:22:44;9.60;99.90
19200;DHT22;9732;52.498;5.408;2023-04-15T03:25:12;9.70;99.90
19200;DHT22;9732;52.498;5.408;2023-04-15T03:27:41;9.60;99.90
19200;DHT22;9732;52.498;5.408;2023-04-15T03:30:09;9.60;99.90
19200;DHT22;9732;52.498;5.408;2023-04-15T03:32:36;9.50;99.90
19200;DHT22;9732;52.498;5.408;2023-04-15T03:35:04;9.50;99.90
19200;DHT22;9732;52.498;5.408;2023-04-15T03:37:32;9.40;99.90
19200;DHT22;9732;52.498;5.408;2023-04-15T03:39:59;9.40;99.90
19200;DHT22;9732;52.498;5.408;2023-04-15T03:42:26;9.40;99.90
19200;DHT22;9732;52.498;5.408;2023-04-15T03:44:54;9.50;99.90
19200;DHT22;9732;52.498;5.408;2023-04-15T03:47:21;9.40;99.90
19200;DHT22;9732;52.498;5.408;2023-04-15T03:49:49;9.40;99.90
19200;DHT22;9732;52.498;5.408;2023-04-15T03:52:17;9.40;99.90
19200;DHT22;9732;52.498;5.408;2023-04-15T03:54:44;9.50;99.90
19200;DHT22;9732;52.498;5.408;2023-04-15T03:57:12;9.40;99.90
19200;DHT22;9732;52.498;5.408;2023-04-15T03:59:39;9.40;99.90
19200;DHT22;9732;52.498;5.408;2023-04-15T04:02:07;9.30;99.90
19200;DHT22;9732;52.498;5.408;2023-04-15T04:04:35;9.30;99.90
19200;DHT22;9732;52.498;5.408;2023-04-15T04:07:02;9.30;99.90
19200;DHT22;9732;52.498;5.408;2023-04-15T04:09:29;9.30;99.90
19200;DHT22;9732;52.498;5.408;2023-04-15T04:11:59;9.30;99.90
19200;DHT22;9732;52.498;5.408;2023-04-15T04:14:27;9.30;99.90
19200;DHT22;9732;52.498;5.408;2023-04-15T04:16:54;9.30;99.90
19200;DHT22;9732;52.498;5.408;2023-04-15T04:19:24;9.30;99.90
19200;DHT22;9732;52.498;5.408;2023-04-15T04:21:51;9.30;99.90
19200;DHT22;9732;52.498;5.408;2023-04-15T04:24:18;9.30;99.90
19200;DHT22;9732;52.498;5.408;2023-04-15T04:26:46;9.20;99.90
19200;DHT22;9732;52.498;5.408;2023-04-15T04:29:13;9.20;99.90
19200;DHT22;9732;52.498;5.408;2023-04-15T04:31:40;9.20;99.90
19200;DHT22;9732;52.498;5.408;2023-04-15T04:34:07;9.20;99.90
19200;DHT22;9732;52.498;5.408;2023-04-15T04:36:35;9.20;99.90
19200;DHT22;9732;52.498;5.408;2023-04-15T04:39:02;9.20;99.90
19200;DHT22;9732;52.498;5.408;2023-04-15T04:41:29;9.20;99.90
19200;DHT22;9732;52.498;5.408;2023-04-15T04:43:56;9.10;99.90
19200;DHT22;9732;52.498;5.408;2023-04-15T04:46:24;9.00;99.90
19200;DHT22;9732;52.498;5.408;2023-04-15T04:48:51;9.00;99.90
19200;DHT22;9732;52.498;5.408;2023-04-15T04:51:18;9.00;99.90
19200;DHT22;9732;52.498;5.408;2023-04-15T04:53:47;9.00;99.90
19200;DHT22;9732;52.498;5.408;2023-04-15T04:56:14;9.00;99.90
19200;DHT22;9732;52.498;5.408;2023-04-15T04:58:40;9.00;99.90
19200;DHT22;9732;52.498;5.408;2023-04-15T05:01:07;9.00;99.90
19200;DHT22;9732;52.498;5.408;2023-04-15T05:03:35;9.00;99.90
19200;DHT22;9732;52.498;5.408;2023-04-15T05:06:05;9.00;99.90
19200;DHT22;9732;52.498;5.408;2023-04-15T05:08:34;9.00;99.90
19200;DHT22;9732;52.498;5.408;2023-04-15T05:11:03;9.00;99.90
19200;DHT22;9732;52.498;5.408;2023-04-15T05:13:30;9.00;99.90
19200;DHT22;9732;52.498;5.408;2023-04-15T05:15:57;9.00;99.90
19200;DHT22;9732;52.498;5.408;2023-04-15T05:18:24;8.90;99.90
19200;DHT22;9732;52.498;5.408;2023-04-15T05:20:51;9.00;99.90
19200;DHT22;9732;52.498;5.408;2023-04-15T05:23:18;9.10;99.90
19200;DHT22;9732;52.498;5.408;2023-04-15T05:25:45;9.00;99.90
19200;DHT22;9732;52.498;5.408;2023-04-15T05:28:14;9.10;99.90
19200;DHT22;9732;52.498;5.408;2023-04-15T05:30:41;9.10;99.90
19200;DHT22;9732;52.498;5.408;2023-04-15T05:33:11;9.00;99.90
19200;DHT22;9732;52.498;5.408;2023-04-15T05:35:38;9.10;99.90
19200;DHT22;9732;52.498;5.408;2023-04-15T05:38:06;9.00;99.90
19200;DHT22;9732;52.498;5.408;2023-04-15T05:40:34;9.00;99.90
19200;DHT22;9732;52.498;5.408;2023-04-15T05:43:01;9.00;99.90
19200;DHT22;9732;52.498;5.408;2023-04-15T05:45:29;9.10;99.90
19200;DHT22;9732;52.498;5.408;2023-04-15T05:47:56;9.10;99.90
19200;DHT22;9732;52.498;5.408;2023-04-15T05:50:23;9.10;99.90
19200;DHT22;9732;52.498;5.408;2023-04-15T05:52:51;9.10;99.90
19200;DHT22;9732;52.498;5.408;2023-04-15T05:55:18;9.10;99.90
19200;DHT22;9732;52.498;5.408;2023-04-15T05:57:44;9.00;99.90
19200;DHT22;9732;52.498;5.408;2023-04-15T06:00:13;9.00;99.90
19200;DHT22;9732;52.498;5.408;2023-04-15T06:02:42;9.00;99.90
19200;DHT22;9732;52.498;5.408;2023-04-15T06:05:09;9.10;99.90
19200;DHT22;9732;52.498;5.408;2023-04-15T06:07:36;9.00;99.90
19200;DHT22;9732;52.498;5.408;2023-04-15T06:10:04;9.00;99.90
19200;DHT22;9732;52.498;5.408;2023-04-15T06:12:31;9.00;99.90
19200;DHT22;9732;52.498;5.408;2023-04-15T06:14:58;9.00;99.90
19200;DHT22;9732;52.498;5.408;2023-04-15T06:17:26;9.00;99.90
19200;DHT22;9732;52.498;5.408;2023-04-15T06:19:54;9.00;99.90
19200;DHT22;9732;52.498;5.408;2023-04-15T06:22:21;9.10;99.90
19200;DHT22;9732;52.498;5.408;2023-04-15T06:24:49;9.00;99.90
19200;DHT22;9732;52.498;5.408;2023-04-15T06:27:16;9.00;99.90
19200;DHT22;9732;52.498;5.408;2023-04-15T06:29:44;9.00;99.90
19200;DHT22;9732;52.498;5.408;2023-04-15T06:32:12;9.10;99.90
19200;DHT22;9732;52.498;5.408;2023-04-15T06:34:39;9.00;99.90
19200;DHT22;9732;52.498;5.408;2023-04-15T06:37:08;9.10;99.90
19200;DHT22;9732;52.498;5.408;2023-04-15T06:39:40;9.10;99.90
19200;DHT22;9732;52.498;5.408;2023-04-15T06:42:07;9.10;99.90
19200;DHT22;9732;52.498;5.408;2023-04-15T06:44:34;9.10;99.90
19200;DHT22;9732;52.498;5.408;2023-04-15T06:47:02;9.20;99.90
19200;DHT22;9732;52.498;5.408;2023-04-15T06:49:29;9.30;99.90
19200;DHT22;9732;52.498;5.408;2023-04-15T06:51:56;9.30;99.90
19200;DHT22;9732;52.498;5.408;2023-04-15T06:54:24;9.30;99.90
19200;DHT22;9732;52.498;5.408;2023-04-15T06:56:52;9.50;99.90
19200;DHT22;9732;52.498;5.408;2023-04-15T06:59:19;9.40;99.90
19200;DHT22;9732;52.498;5.408;2023-04-15T07:01:46;9.50;99.90
19200;DHT22;9732;52.498;5.408;2023-04-15T07:04:13;9.50;99.90
19200;DHT22;9732;52.498;5.408;2023-04-15T07:06:39;9.60;99.90
19200;DHT22;9732;52.498;5.408;2023-04-15T07:09:07;9.70;99.90
19200;DHT22;9732;52.498;5.408;2023-04-15T07:11:35;9.70;99.90
19200;DHT22;9732;52.498;5.408;2023-04-15T07:14:02;9.80;99.90
19200;DHT22;9732;52.498;5.408;2023-04-15T07:16:29;9.90;99.90
19200;DHT22;9732;52.498;5.408;2023-04-15T07:18:55;10.00;99.90
19200;DHT22;9732;52.498;5.408;2023-04-15T07:21:24;10.00;99.90
19200;DHT22;9732;52.498;5.408;2023-04-15T07:23:52;10.20;99.90
19200;DHT22;9732;52.498;5.408;2023-04-15T07:26:18;10.10;99.90
19200;DHT22;9732;52.498;5.408;2023-04-15T07:28:47;10.20;99.90
19200;DHT22;9732;52.498;5.408;2023-04-15T07:31:14;10.20;99.90
19200;DHT22;9732;52.498;5.408;2023-04-15T07:33:40;10.20;99.90
19200;DHT22;9732;52.498;5.408;2023-04-15T07:36:08;10.20;99.90
19200;DHT22;9732;52.498;5.408;2023-04-15T07:38:35;10.20;99.90
19200;DHT22;9732;52.498;5.408;2023-04-15T07:41:02;10.30;99.90
19200;DHT22;9732;52.498;5.408;2023-04-15T07:43:29;10.30;99.90
19200;DHT22;9732;52.498;5.408;2023-04-15T07:45:57;10.30;99.90
19200;DHT22;9732;52.498;5.408;2023-04-15T07:48:24;10.30;99.90
19200;DHT22;9732;52.498;5.408;2023-04-15T07:50:51;10.40;99.90
19200;DHT22;9732;52.498;5.408;2023-04-15T07:53:17;10.60;99.90
19200;DHT22;9732;52.498;5.408;2023-04-15T07:55:44;10.60;99.90
19200;DHT22;9732;52.498;5.408;2023-04-15T07:58:11;10.70;99.90
19200;DHT22;9732;52.498;5.408;2023-04-15T08:00:38;10.80;99.90
19200;DHT22;9732;52.498;5.408;2023-04-15T08:03:06;10.80;99.90
19200;DHT22;9732;52.498;5.408;2023-04-15T08:05:33;10.90;99.90
19200;DHT22;9732;52.498;5.408;2023-04-15T08:08:00;10.90;99.90
19200;DHT22;9732;52.498;5.408;2023-04-15T08:10:28;10.90;99.90
19200;DHT22;9732;52.498;5.408;2023-04-15T08:12:55;11.00;99.90
19200;DHT22;9732;52.498;5.408;2023-04-15T08:15:22;11.00;99.90
19200;DHT22;9732;52.498;5.408;2023-04-15T08:17:48;11.00;99.90
19200;DHT22;9732;52.498;5.408;2023-04-15T08:20:17;11.00;99.90
19200;DHT22;9732;52.498;5.408;2023-04-15T08:22:45;11.00;99.90
19200;DHT22;9732;52.498;5.408;2023-04-15T08:25:16;11.00;99.90
19200;DHT22;9732;52.498;5.408;2023-04-15T08:27:43;11.00;99.90
19200;DHT22;9732;52.498;5.408;2023-04-15T08:30:10;11.00;99.90
19200;DHT22;9732;52.498;5.408;2023-04-15T08:32:37;11.10;99.90
19200;DHT22;9732;52.498;5.408;2023-04-15T08:35:04;11.20;99.90
19200;DHT22;9732;52.498;5.408;2023-04-15T08:37:33;11.20;99.90
19200;DHT22;9732;52.498;5.408;2023-04-15T08:40:00;11.30;99.90
19200;DHT22;9732;52.498;5.408;2023-04-15T08:42:30;11.30;99.90
19200;DHT22;9732;52.498;5.408;2023-04-15T08:44:58;11.30;99.90
19200;DHT22;9732;52.498;5.408;2023-04-15T08:47:29;11.40;99.90
19200;DHT22;9732;52.498;5.408;2023-04-15T08:49:57;11.30;99.90
19200;DHT22;9732;52.498;5.408;2023-04-15T08:52:25;11.40;99.90
19200;DHT22;9732;52.498;5.408;2023-04-15T08:54:56;11.30;99.90
19200;DHT22;9732;52.498;5.408;2023-04-15T08:57:24;11.40;99.90
19200;DHT22;9732;52.498;5.408;2023-04-15T08:59:52;11.40;99.90
19200;DHT22;9732;52.498;5.408;2023-04-15T09:02:20;11.60;99.90
19200;DHT22;9732;52.498;5.408;2023-04-15T09:04:47;11.70;99.90
19200;DHT22;9732;52.498;5.408;2023-04-15T09:07:14;11.90;99.90
19200;DHT22;9732;52.498;5.408;2023-04-15T09:09:40;11.90;99.90
19200;DHT22;9732;52.498;5.408;2023-04-15T09:12:11;12.00;99.90
19200;DHT22;9732;52.498;5.408;2023-04-15T09:14:39;12.10;99.90
19200;DHT22;9732;52.498;5.408;2023-04-15T09:17:09;12.20;99.90
19200;DHT22;9732;52.498;5.408;2023-04-15T09:19:36;12.40;99.90
19200;DHT22;9732;52.498;5.408;2023-04-15T09:22:03;12.50;99.90
19200;DHT22;9732;52.498;5.408;2023-04-15T09:24:35;12.60;99.90
19200;DHT22;9732;52.498;5.408;2023-04-15T09:27:03;12.50;99.90
19200;DHT22;9732;52.498;5.408;2023-04-15T09:29:32;12.60;99.90
19200;DHT22;9732;52.498;5.408;2023-04-15T09:32:08;12.60;99.90
19200;DHT22;9732;52.498;5.408;2023-04-15T09:34:36;12.60;99.90
19200;DHT22;9732;52.498;5.408;2023-04-15T09:37:03;12.60;99.90
19200;DHT22;9732;52.498;5.408;2023-04-15T09:39:45;12.70;99.90
19200;DHT22;9732;52.498;5.408;2023-04-15T09:42:12;12.90;99.90
19200;DHT22;9732;52.498;5.408;2023-04-15T09:44:40;13.00;99.90
19200;DHT22;9732;52.498;5.408;2023-04-15T09:47:07;13.10;99.90
19200;DHT22;9732;52.498;5.408;2023-04-15T09:49:34;13.20;99.90
19200;DHT22;9732;52.498;5.408;2023-04-15T09:52:01;13.50;99.90
19200;DHT22;9732;52.498;5.408;2023-04-15T09:54:35;13.70;99.90
19200;DHT22;9732;52.498;5.408;2023-04-15T09:57:06;14.00;99.90
19200;DHT22;9732;52.498;5.408;2023-04-15T09:59:34;14.30;99.90
19200;DHT22;9732;52.498;5.408;2023-04-15T10:02:04;14.60;99.90
19200;DHT22;9732;52.498;5.408;2023-04-15T10:04:34;14.80;99.90
19200;DHT22;9732;52.498;5.408;2023-04-15T10:07:03;14.90;99.90
19200;DHT22;9732;52.498;5.408;2023-04-15T10:09:31;15.00;99.90
19200;DHT22;9732;52.498;5.408;2023-04-15T10:11:58;15.00;99.90
19200;DHT22;9732;52.498;5.408;2023-04-15T10:14:27;15.10;99.90
19200;DHT22;9732;52.498;5.408;2023-04-15T10:17:00;15.20;99.90
19200;DHT22;9732;52.498;5.408;2023-04-15T10:19:30;15.20;99.90
19200;DHT22;9732;52.498;5.408;2023-04-15T10:21:58;15.20;99.90
19200;DHT22;9732;52.498;5.408;2023-04-15T10:24:26;15.20;99.90
19200;DHT22;9732;52.498;5.408;2023-04-15T10:26:53;15.40;99.90
19200;DHT22;9732;52.498;5.408;2023-04-15T10:29:23;15.50;99.90
19200;DHT22;9732;52.498;5.408;2023-04-15T10:31:51;15.50;99.90
19200;DHT22;9732;52.498;5.408;2023-04-15T10:34:19;15.50;99.90
19200;DHT22;9732;52.498;5.408;2023-04-15T10:36:48;15.60;99.90
19200;DHT22;9732;52.498;5.408;2023-04-15T10:39:37;15.60;99.90
19200;DHT22;9732;52.498;5.408;2023-04-15T10:42:08;15.60;99.90
19200;DHT22;9732;52.498;5.408;2023-04-15T10:44:37;15.80;99.90
19200;DHT22;9732;52.498;5.408;2023-04-15T10:47:09;15.90;99.90
19200;DHT22;9732;52.498;5.408;2023-04-15T10:49:42;16.00;99.90
19200;DHT22;9732;52.498;5.408;2023-04-15T10:52:11;16.40;99.90
19200;DHT22;9732;52.498;5.408;2023-04-15T10:54:37;16.60;99.90
19200;DHT22;9732;52.498;5.408;2023-04-15T10:57:12;16.90;99.90
19200;DHT22;9732;52.498;5.408;2023-04-15T11:00:03;17.10;99.90
19200;DHT22;9732;52.498;5.408;2023-04-15T11:02:44;17.30;99.90
19200;DHT22;9732;52.498;5.408;2023-04-15T11:05:12;17.30;99.90
19200;DHT22;9732;52.498;5.408;2023-04-15T11:07:47;17.20;99.90
19200;DHT22;9732;52.498;5.408;2023-04-15T11:13:24;17.10;99.90
19200;DHT22;9732;52.498;5.408;2023-04-15T11:15:56;17.30;99.90
19200;DHT22;9732;52.498;5.408;2023-04-15T11:18:25;17.60;99.90
19200;DHT22;9732;52.498;5.408;2023-04-15T11:20:54;17.80;99.90
19200;DHT22;9732;52.498;5.408;2023-04-15T11:23:37;18.10;99.90
19200;DHT22;9732;52.498;5.408;2023-04-15T11:26:07;18.10;99.90
19200;DHT22;9732;52.498;5.408;2023-04-15T11:28:38;18.00;99.90
19200;DHT22;9732;52.498;5.408;2023-04-15T11:31:07;18.40;99.90
19200;DHT22;9732;52.498;5.408;2023-04-15T11:33:38;18.70;99.90
19200;DHT22;9732;52.498;5.408;2023-04-15T11:36:10;18.70;99.90
19200;DHT22;9732;52.498;5.408;2023-04-15T11:38:42;18.70;99.90
19200;DHT22;9732;52.498;5.408;2023-04-15T11:41:10;18.30;99.90
19200;DHT22;9732;52.498;5.408;2023-04-15T11:43:37;17.80;99.90
19200;DHT22;9732;52.498;5.408;2023-04-15T11:46:04;17.90;99.90
19200;DHT22;9732;52.498;5.408;2023-04-15T11:48:33;17.80;99.90
19200;DHT22;9732;52.498;5.408;2023-04-15T11:51:01;18.10;99.90
19200;DHT22;9732;52.498;5.408;2023-04-15T11:53:41;18.30;99.90
19200;DHT22;9732;52.498;5.408;2023-04-15T11:56:08;18.50;99.90
19200;DHT22;9732;52.498;5.408;2023-04-15T11:58:37;18.50;99.90
19200;DHT22;9732;52.498;5.408;2023-04-15T12:01:05;18.60;99.90
19200;DHT22;9732;52.498;5.408;2023-04-15T12:03:36;18.60;99.90
19200;DHT22;9732;52.498;5.408;2023-04-15T12:06:05;18.60;99.90
19200;DHT22;9732;52.498;5.408;2023-04-15T12:09:10;18.70;99.90
19200;DHT22;9732;52.498;5.408;2023-04-15T12:11:39;18.40;99.90
19200;DHT22;9732;52.498;5.408;2023-04-15T12:14:17;18.00;99.90
19200;DHT22;9732;52.498;5.408;2023-04-15T12:16:46;17.50;99.90
19200;DHT22;9732;52.498;5.408;2023-04-15T12:19:16;17.30;99.90
19200;DHT22;9732;52.498;5.408;2023-04-15T12:21:44;17.10;99.90
19200;DHT22;9732;52.498;5.408;2023-04-15T12:24:12;16.80;99.90
19200;DHT22;9732;52.498;5.408;2023-04-15T12:26:43;16.10;99.90
19200;DHT22;9732;52.498;5.408;2023-04-15T12:29:11;15.90;99.90
19200;DHT22;9732;52.498;5.408;2023-04-15T12:31:47;15.80;99.90
19200;DHT22;9732;52.498;5.408;2023-04-15T12:34:15;15.60;99.90
19200;DHT22;9732;52.498;5.408;2023-04-15T12:36:42;15.30;99.90
19200;DHT22;9732;52.498;5.408;2023-04-15T12:39:08;15.20;99.90
19200;DHT22;9732;52.498;5.408;2023-04-15T12:41:37;15.10;99.90
19200;DHT22;9732;52.498;5.408;2023-04-15T12:44:04;14.80;99.90
19200;DHT22;9732;52.498;5.408;2023-04-15T12:46:30;14.60;99.90
19200;DHT22;9732;52.498;5.408;2023-04-15T12:48:57;14.40;99.90
19200;DHT22;9732;52.498;5.408;2023-04-15T12:51:24;14.40;99.90
19200;DHT22;9732;52.498;5.408;2023-04-15T12:53:51;14.30;99.90
19200;DHT22;9732;52.498;5.408;2023-04-15T12:56:18;14.30;99.90
19200;DHT22;9732;52.498;5.408;2023-04-15T12:58:46;14.30;99.90
19200;DHT22;9732;52.498;5.408;2023-04-15T13:01:13;14.10;99.90
19200;DHT22;9732;52.498;5.408;2023-04-15T13:03:40;13.90;99.90
19200;DHT22;9732;52.498;5.408;2023-04-15T13:06:08;13.80;99.90
19200;DHT22;9732;52.498;5.408;2023-04-15T13:08:37;13.80;99.90
19200;DHT22;9732;52.498;5.408;2023-04-15T13:11:04;13.80;99.90
19200;DHT22;9732;52.498;5.408;2023-04-15T13:13:31;13.80;99.90
19200;DHT22;9732;52.498;5.408;2023-04-15T13:16:01;13.80;99.90
19200;DHT22;9732;52.498;5.408;2023-04-15T13:18:28;13.90;99.90
19200;DHT22;9732;52.498;5.408;2023-04-15T13:20:56;13.80;99.90
19200;DHT22;9732;52.498;5.408;2023-04-15T13:23:22;13.80;99.90
19200;DHT22;9732;52.498;5.408;2023-04-15T13:25:49;13.80;99.90
19200;DHT22;9732;52.498;5.408;2023-04-15T13:28:16;13.60;99.90
19200;DHT22;9732;52.498;5.408;2023-04-15T13:30:43;13.50;99.90
19200;DHT22;9732;52.498;5.408;2023-04-15T13:33:12;13.30;99.90
19200;DHT22;9732;52.498;5.408;2023-04-15T13:35:40;13.10;99.90
19200;DHT22;9732;52.498;5.408;2023-04-15T13:38:07;13.00;99.90
19200;DHT22;9732;52.498;5.408;2023-04-15T13:40:37;12.90;99.90
19200;DHT22;9732;52.498;5.408;2023-04-15T13:43:04;12.70;99.90
19200;DHT22;9732;52.498;5.408;2023-04-15T13:45:31;12.60;99.90
19200;DHT22;9732;52.498;5.408;2023-04-15T13:47:58;12.50;99.90
19200;DHT22;9732;52.498;5.408;2023-04-15T13:50:27;12.60;99.90
19200;DHT22;9732;52.498;5.408;2023-04-15T13:52:54;12.60;99.90
19200;DHT22;9732;52.498;5.408;2023-04-15T13:55:21;12.70;99.90
19200;DHT22;9732;52.498;5.408;2023-04-15T13:57:47;12.70;99.90
19200;DHT22;9732;52.498;5.408;2023-04-15T14:00:15;12.70;99.90
19200;DHT22;9732;52.498;5.408;2023-04-15T14:02:42;12.70;99.90
19200;DHT22;9732;52.498;5.408;2023-04-15T14:05:09;12.70;99.90
19200;DHT22;9732;52.498;5.408;2023-04-15T14:07:38;12.60;99.90
19200;DHT22;9732;52.498;5.408;2023-04-15T14:10:06;12.50;99.90
19200;DHT22;9732;52.498;5.408;2023-04-15T14:12:33;12.40;99.90
19200;DHT22;9732;52.498;5.408;2023-04-15T14:14:59;12.40;99.90
19200;DHT22;9732;52.498;5.408;2023-04-15T14:17:27;12.40;99.90
19200;DHT22;9732;52.498;5.408;2023-04-15T14:19:54;12.30;99.90
19200;DHT22;9732;52.498;5.408;2023-04-15T14:22:21;12.40;99.90
19200;DHT22;9732;52.498;5.408;2023-04-15T14:24:49;12.40;99.90
19200;DHT22;9732;52.498;5.408;2023-04-15T14:27:18;12.30;99.90
19200;DHT22;9732;52.498;5.408;2023-04-15T14:29:44;12.30;99.90
19200;DHT22;9732;52.498;5.408;2023-04-15T14:32:11;12.00;99.90
19200;DHT22;9732;52.498;5.408;2023-04-15T14:34:38;11.90;99.90
19200;DHT22;9732;52.498;5.408;2023-04-15T14:37:05;11.90;99.90
19200;DHT22;9732;52.498;5.408;2023-04-15T14:39:32;11.80;99.90
19200;DHT22;9732;52.498;5.408;2023-04-15T14:42:00;11.90;99.90
19200;DHT22;9732;52.498;5.408;2023-04-15T14:44:27;11.80;99.90
19200;DHT22;9732;52.498;5.408;2023-04-15T14:46:54;11.80;99.90
19200;DHT22;9732;52.498;5.408;2023-04-15T14:49:21;11.60;99.90
19200;DHT22;9732;52.498;5.408;2023-04-15T14:51:48;11.60;99.90
19200;DHT22;9732;52.498;5.408;2023-04-15T14:54:15;11.60;99.90
19200;DHT22;9732;52.498;5.408;2023-04-15T14:56:41;11.50;99.90
19200;DHT22;9732;52.498;5.408;2023-04-15T14:59:09;11.40;99.90
19200;DHT22;9732;52.498;5.408;2023-04-15T15:01:36;11.40;99.90
19200;DHT22;9732;52.498;5.408;2023-04-15T15:04:03;11.30;99.90
19200;DHT22;9732;52.498;5.408;2023-04-15T15:06:30;11.30;99.90
19200;DHT22;9732;52.498;5.408;2023-04-15T15:08:57;11.30;99.90
19200;DHT22;9732;52.498;5.408;2023-04-15T15:11:23;11.20;99.90
19200;DHT22;9732;52.498;5.408;2023-04-15T15:13:51;11.20;99.90
19200;DHT22;9732;52.498;5.408;2023-04-15T15:16:19;11.20;99.90
19200;DHT22;9732;52.498;5.408;2023-04-15T15:18:46;11.20;99.90
19200;DHT22;9732;52.498;5.408;2023-04-15T15:21:13;11.20;99.90
19200;DHT22;9732;52.498;5.408;2023-04-15T15:23:39;11.10;99.90
19200;DHT22;9732;52.498;5.408;2023-04-15T15:26:06;11.10;99.90
19200;DHT22;9732;52.498;5.408;2023-04-15T15:28:33;11.20;99.90
19200;DHT22;9732;52.498;5.408;2023-04-15T15:31:00;11.10;99.90
19200;DHT22;9732;52.498;5.408;2023-04-15T15:33:28;11.00;99.90
19200;DHT22;9732;52.498;5.408;2023-04-15T15:35:55;10.90;99.90
19200;DHT22;9732;52.498;5.408;2023-04-15T15:38:23;10.90;99.90
19200;DHT22;9732;52.498;5.408;2023-04-15T15:40:49;11.00;99.90
19200;DHT22;9732;52.498;5.408;2023-04-15T15:43:16;10.90;99.90
19200;DHT22;9732;52.498;5.408;2023-04-15T15:45:43;11.00;99.90
19200;DHT22;9732;52.498;5.408;2023-04-15T15:48:10;11.00;99.90
19200;DHT22;9732;52.498;5.408;2023-04-15T15:50:38;11.00;99.90
19200;DHT22;9732;52.498;5.408;2023-04-15T15:53:04;11.00;99.90
19200;DHT22;9732;52.498;5.408;2023-04-15T15:55:31;10.90;99.90
19200;DHT22;9732;52.498;5.408;2023-04-15T15:57:58;10.90;99.90